Time;durP1;ratioP1;P1;durP2;ratioP2;P2;SDS_P1;SDS_P2;PMS_P1;PMS_P2;Temp;Humidity;BMP_temperature;BMP_pressure;BME280_temperature;BME280_humidity;BME280_pressure;Samples;Min_cycle;Max_cycle;Signal;HPM_P1;HPM_P2
2022/04/25 04:12:55;;;;;;;17.30;8.60;;;;;;;9.45;71.36;97733.08;105485;1273;96589;-70
2022/04/25 04:15:29;;;;;;;18.20;8.60;;;;;;;9.50;71.37;97730.98;105256;1282;109013;-69
2022/04/25 04:17:57;;;;;;;17.20;9.00;;;;;;;9.56;71.42;97731.17;105615;1283;97119;-71
2022/04/25 04:20:25;;;;;;;16.40;8.40;;;;;;;9.61;71.42;97735.36;105563;1283;107667;-71
2022/04/25 04:22:53;;;;;;;19.40;8.90;;;;;;;9.67;71.44;97740.11;105571;1282;94296;-71
2022/04/25 04:25:22;;;;;;;17.50;9.50;;;;;;;9.72;71.54;97743.16;105129;1281;96539;-69
2022/04/25 04:27:50;;;;;;;21.60;10.00;;;;;;;9.78;71.52;97744.77;105458;1283;109800;-69
2022/04/25 04:30:18;;;;;;;20.70;9.40;;;;;;;9.83;71.49;97746.98;105458;1282;96498;-72
2022/04/25 04:32:46;;;;;;;19.10;9.10;;;;;;;9.89;71.57;97751.61;105507;1281;107807;-70
2022/04/25 04:36:17;;;;;;;18.50;9.50;;;;;;;9.93;71.55;97753.19;105571;1283;96542;-68
2022/04/25 04:38:05;;;;;;;18.00;8.40;;;;;;;9.97;71.64;97752.83;105553;1283;96703;-69
2022/04/25 04:40:34;;;;;;;20.50;8.90;;;;;;;9.98;71.55;97752.89;105580;1283;110009;-69
2022/04/25 04:43:03;;;;;;;17.60;9.10;;;;;;;10.00;71.53;97748.84;105546;1283;96558;-67
2022/04/25 04:45:31;;;;;;;18.60;10.40;;;;;;;10.02;71.60;97752.19;105566;1283;108205;-70
2022/04/25 04:47:59;;;;;;;19.30;9.80;;;;;;;10.03;71.61;97755.98;105481;1281;96657;-69
2022/04/25 04:50:27;;;;;;;18.90;9.70;;;;;;;10.05;71.62;97757.00;105416;1282;97144;-68
2022/04/25 04:52:58;;;;;;;21.80;9.50;;;;;;;10.07;71.66;97756.27;105474;1282;110066;-69
2022/04/25 04:55:27;;;;;;;19.00;9.80;;;;;;;10.11;71.66;97758.45;105334;1282;96712;-71
2022/04/25 04:57:58;;;;;;;18.50;8.90;;;;;;;10.14;71.64;97754.33;105462;1282;107762;-69
2022/04/25 05:00:27;;;;;;;19.20;9.50;;;;;;;10.17;71.73;97755.41;105457;1282;96671;-69
2022/04/25 05:02:55;;;;;;;19.40;8.40;;;;;;;10.22;71.81;97758.89;105531;1283;96601;-71
2022/04/25 05:05:23;;;;;;;21.90;9.20;;;;;;;10.27;71.77;97754.70;105423;1282;110499;-70
2022/04/25 05:07:51;;;;;;;18.50;9.10;;;;;;;10.32;71.73;97750.72;105589;1281;95254;-70
2022/04/25 05:10:19;;;;;;;18.40;8.50;;;;;;;10.38;71.89;97751.42;105489;1283;107879;-72
2022/04/25 05:12:49;;;;;;;18.60;8.80;;;;;;;10.43;71.84;97750.41;105502;1281;96696;-70
2022/04/25 05:15:18;;;;;;;16.40;7.40;;;;;;;10.50;71.85;97752.64;105472;1281;96511;-70
2022/04/25 05:17:53;;;;;;;17.00;8.80;;;;;;;10.56;71.93;97754.16;105417;1282;110017;-67
2022/04/25 05:20:23;;;;;;;21.60;8.90;;;;;;;10.63;71.95;97760.14;105530;1281;95092;-72
2022/04/25 05:22:52;;;;;;;19.60;8.30;;;;;;;10.69;71.91;97764.64;105587;1281;107451;-70
2022/04/25 05:25:22;;;;;;;18.10;9.10;;;;;;;10.75;71.97;97764.11;105622;1283;96564;-69
2022/04/25 05:27:53;;;;;;;23.20;9.10;;;;;;;10.81;71.94;97766.70;105391;1282;94227;-70
2022/04/25 05:30:23;;;;;;;21.50;9.10;;;;;;;10.89;72.05;97768.52;105542;1282;110074;-70
2022/04/25 05:32:57;;;;;;;17.50;7.90;;;;;;;10.94;72.05;97767.79;105683;1283;96508;-68
2022/04/25 05:35:27;;;;;;;20.50;8.60;;;;;;;11.01;71.99;97765.21;105433;1282;107024;-71
2022/04/25 05:37:56;;;;;;;17.80;8.30;;;;;;;11.09;72.01;97772.48;105611;1281;96556;-68
2022/04/25 05:40:25;;;;;;;18.80;8.50;;;;;;;11.15;72.16;97772.20;105650;1282;96542;-69
2022/04/25 05:42:57;;;;;;;16.90;8.30;;;;;;;11.24;72.04;97773.17;105726;1281;110067;-70
2022/04/25 05:45:26;;;;;;;17.40;8.40;;;;;;;11.30;72.01;97776.79;105510;1283;96531;-70
2022/04/25 05:47:56;;;;;;;20.70;8.80;;;;;;;11.38;72.08;97780.52;105569;1281;107614;-71
2022/04/25 05:53:16;;;;;;;17.50;8.10;;;;;;;11.53;72.11;97786.19;105447;1281;96533;-70
2022/04/25 05:55:44;;;;;;;18.50;8.70;;;;;;;11.59;72.11;97784.92;105527;1281;111344;-70
2022/04/25 05:58:14;;;;;;;17.90;8.20;;;;;;;11.65;72.07;97789.42;105639;1283;97117;-71
2022/04/25 06:00:42;;;;;;;17.20;8.40;;;;;;;11.71;71.98;97790.11;105681;1281;106724;-69
2022/04/25 06:03:10;;;;;;;17.90;7.50;;;;;;;11.78;71.89;97788.95;105614;1282;95833;-70
2022/04/25 06:05:39;;;;;;;17.50;7.50;;;;;;;11.84;72.00;97785.69;105574;1283;96589;-70
2022/04/25 06:08:09;;;;;;;14.90;7.40;;;;;;;11.90;71.93;97786.86;105415;1282;109818;-69
2022/04/25 06:10:36;;;;;;;16.30;7.80;;;;;;;11.96;72.00;97784.49;105571;1281;96532;-70
2022/04/25 06:13:04;;;;;;;17.30;7.00;;;;;;;12.02;72.03;97784.15;105530;1281;108124;-71
2022/04/25 06:15:33;;;;;;;20.80;8.40;;;;;;;12.07;71.98;97786.83;105669;1281;94342;-70
2022/04/25 06:18:04;;;;;;;16.40;7.30;;;;;;;12.12;72.02;97782.20;105404;1282;96545;-69
2022/04/25 06:20:33;;;;;;;16.50;6.80;;;;;;;12.18;72.01;97782.47;105607;1283;109641;-69
2022/04/25 06:23:03;;;;;;;17.90;7.50;;;;;;;12.24;72.00;97778.39;105619;1283;94379;-71
2022/04/25 06:25:37;;;;;;;19.90;7.80;;;;;;;12.31;71.96;97783.39;105597;1283;108243;-68
2022/04/25 06:28:06;;;;;;;19.40;7.70;;;;;;;12.38;72.00;97783.23;105579;1283;95121;-70
2022/04/25 06:30:34;;;;;;;19.40;7.50;;;;;;;12.43;71.90;97781.63;105646;1283;96303;-69
2022/04/25 06:33:03;;;;;;;16.10;7.60;;;;;;;12.49;71.88;97782.11;105668;1281;111716;-71
2022/04/25 06:35:31;;;;;;;14.10;6.70;;;;;;;12.55;71.89;97781.52;105669;1283;96572;-70
2022/04/25 06:37:58;;;;;;;17.60;7.10;;;;;;;12.61;71.83;97779.85;105653;1283;107973;-68
2022/04/25 06:40:26;;;;;;;16.90;6.50;;;;;;;12.68;71.88;97778.59;105619;1283;96640;-70
2022/04/25 06:42:55;;;;;;;15.00;6.60;;;;;;;12.74;71.75;97783.33;105603;1281;96662;-70
2022/04/25 06:45:25;;;;;;;14.80;7.10;;;;;;;12.80;71.71;97776.80;105276;1284;111213;-69
2022/04/25 06:47:54;;;;;;;16.70;7.30;;;;;;;12.87;71.72;97778.57;105328;1284;95109;-69
2022/04/25 06:50:25;;;;;;;16.60;6.80;;;;;;;12.96;71.67;97779.46;105629;1281;108371;-70
2022/04/25 06:52:53;;;;;;;14.80;6.50;;;;;;;13.06;71.72;97779.02;105643;1281;96658;-71
2022/04/25 06:55:20;;;;;;;19.90;6.60;;;;;;;13.15;71.65;97781.46;105407;1282;96542;-70
2022/04/25 06:57:48;;;;;;;15.30;6.30;;;;;;;13.25;71.67;97777.32;105527;1282;111527;-70
2022/04/25 07:00:22;;;;;;;16.20;6.00;;;;;;;13.35;71.50;97774.89;105604;1281;97783;-70
2022/04/25 07:03:06;;;;;;;19.50;6.40;;;;;;;13.44;71.55;97771.84;105488;1282;107925;-71
2022/04/25 07:05:37;;;;;;;13.30;5.80;;;;;;;13.58;71.55;97777.20;105695;1281;96178;-72
2022/04/25 07:08:07;;;;;;;14.50;6.20;;;;;;;13.77;71.39;97776.95;105493;1282;96547;-70
2022/04/25 07:10:35;;;;;;;13.70;5.60;;;;;;;14.62;70.25;97775.30;105324;1283;109938;-69
